Time;durP1;ratioP1;P1;durP2;ratioP2;P2;SDS_P1;SDS_P2;PMS_P1;PMS_P2;Temp;Humidity;BMP_temperature;BMP_pressure;BME280_temperature;BME280_humidity;BME280_pressure;Samples;Min_cycle;Max_cycle;Signal;HPM_P1;HPM_P2
2021/01/05 00:01:51;;;;;;;0.70;0.70;;;19.80;46.40;;;;;;5048658;28;20489;-68
2021/01/05 00:04:17;;;;;;;0.60;0.60;;;19.90;46.50;;;;;;5063683;28;20486;-70
2021/01/05 00:06:43;;;;;;;1.33;0.93;;;19.90;46.50;;;;;;5046139;28;20561;-69
2021/01/05 00:09:10;;;;;;;1.07;0.80;;;19.80;46.30;;;;;;5062070;28;20482;-68
2021/01/05 00:11:55;;;;;;;0.90;0.90;;;19.80;46.40;;;;;;5057575;28;20497;-69
2021/01/05 00:14:21;;;;;;;0.87;0.70;;;19.90;46.40;;;;;;5049221;28;20489;-69
2021/01/05 00:16:47;;;;;;;0.50;0.50;;;19.90;46.40;;;;;;5049676;28;20488;-70
2021/01/05 00:19:13;;;;;;;0.73;0.73;;;19.90;46.30;;;;;;5053180;28;20538;-70
2021/01/05 00:21:39;;;;;;;0.90;0.90;;;19.90;46.40;;;;;;5042014;28;20948;-69
2021/01/05 00:24:06;;;;;;;0.50;0.50;;;19.80;46.20;;;;;;5030855;28;20484;-70
2021/01/05 00:26:35;;;;;;;0.60;0.60;;;19.80;46.20;;;;;;5041759;28;20923;-69
2021/01/05 00:29:02;;;;;;;0.60;0.60;;;19.80;46.20;;;;;;5055621;28;20480;-69
2021/01/05 00:31:28;;;;;;;0.70;0.70;;;19.90;46.30;;;;;;5031662;28;20500;-69
2021/01/05 00:33:54;;;;;;;0.80;0.80;;;19.90;46.20;;;;;;5048628;28;20482;-69
2021/01/05 00:36:20;;;;;;;0.97;0.70;;;19.90;46.40;;;;;;5053497;28;20486;-68
2021/01/05 00:38:47;;;;;;;0.70;0.70;;;19.80;46.40;;;;;;5052157;28;20490;-69
2021/01/05 00:41:13;;;;;;;0.80;0.70;;;19.80;46.20;;;;;;5052856;28;20481;-69
2021/01/05 00:43:40;;;;;;;0.70;0.63;;;19.90;46.40;;;;;;5032208;28;20542;-70
2021/01/05 00:46:07;;;;;;;2.60;0.70;;;19.80;46.20;;;;;;5052868;28;21041;-70
2021/01/05 00:48:33;;;;;;;0.90;0.53;;;19.80;46.40;;;;;;5044376;28;20913;-68
2021/01/05 00:50:59;;;;;;;0.87;0.87;;;19.80;46.40;;;;;;5047064;28;20481;-69
2021/01/05 00:53:26;;;;;;;0.70;0.70;;;19.80;46.30;;;;;;5035408;28;20968;-69
2021/01/05 00:55:52;;;;;;;0.93;0.93;;;19.90;46.50;;;;;;5062934;28;20481;-70
2021/01/05 00:58:23;;;;;;;0.77;0.70;;;19.80;46.30;;;;;;5057723;28;20481;-70
2021/01/05 01:00:50;;;;;;;0.80;0.80;;;19.80;46.20;;;;;;5057881;28;21129;-69
2021/01/05 01:03:16;;;;;;;0.50;0.50;;;19.80;46.20;;;;;;5054238;28;20579;-70
2021/01/05 01:05:43;;;;;;;0.70;0.70;;;19.90;46.10;;;;;;5009515;28;21664;-70
2021/01/05 01:08:09;;;;;;;1.03;0.80;;;19.80;46.20;;;;;;5038338;28;20478;-70
2021/01/05 01:10:35;;;;;;;0.93;0.87;;;19.90;46.10;;;;;;5034195;28;20925;-70
2021/01/05 01:13:01;;;;;;;0.80;0.80;;;19.80;46.10;;;;;;5043693;28;20490;-70
2021/01/05 01:15:27;;;;;;;0.53;0.53;;;19.90;46.20;;;;;;5041521;28;20477;-69
2021/01/05 01:17:54;;;;;;;0.60;0.60;;;19.80;46.20;;;;;;5045618;28;20470;-70
2021/01/05 01:20:21;;;;;;;0.50;0.50;;;19.80;46.30;;;;;;5043463;28;20479;-70
2021/01/05 01:22:47;;;;;;;1.37;0.80;;;19.80;46.10;;;;;;5030749;28;20486;-70
2021/01/05 01:25:13;;;;;;;0.70;0.70;;;19.90;46.20;;;;;;5025976;28;20483;-70
2021/01/05 01:27:39;;;;;;;0.63;0.63;;;19.80;46.10;;;;;;5045171;28;20488;-69
2021/01/05 01:30:07;;;;;;;0.70;0.70;;;19.80;46.20;;;;;;5054610;28;20929;-70
2021/01/05 01:32:33;;;;;;;1.63;0.80;;;19.90;46.20;;;;;;5041170;28;20473;-69
2021/01/05 01:35:00;;;;;;;0.90;0.90;;;19.90;46.10;;;;;;5049840;28;20486;-69
2021/01/05 01:37:26;;;;;;;0.70;0.70;;;19.90;46.30;;;;;;5045934;28;20484;-70
2021/01/05 01:39:53;;;;;;;1.80;0.70;;;19.80;46.10;;;;;;5053386;28;20498;-69
2021/01/05 01:42:19;;;;;;;0.60;0.60;;;19.90;46.00;;;;;;5051956;28;20493;-69
2021/01/05 01:44:46;;;;;;;0.80;0.80;;;19.90;46.10;;;;;;5053820;28;20498;-70
2021/01/05 01:47:15;;;;;;;0.83;0.83;;;19.80;46.00;;;;;;5015497;28;20989;-69
2021/01/05 01:49:44;;;;;;;1.00;0.77;;;19.90;46.30;;;;;;5061430;28;20488;-69
2021/01/05 01:52:11;;;;;;;0.70;0.70;;;19.90;46.10;;;;;;5037917;28;20501;-70
2021/01/05 01:54:59;;;;;;;0.60;0.60;;;19.90;46.10;;;;;;5011445;28;20497;-69
2021/01/05 01:57:38;;;;;;;0.97;0.90;;;19.80;46.00;;;;;;5042044;28;20482;-69
2021/01/05 02:00:25;;;;;;;1.10;1.00;;;19.90;46.10;;;;;;5054996;28;20543;-70
2021/01/05 02:03:09;;;;;;;0.80;0.80;;;19.80;46.10;;;;;;5037131;28;20869;-70
2021/01/05 02:05:36;;;;;;;2.97;0.90;;;19.90;46.90;;;;;;5054886;28;20481;-70
2021/01/05 02:08:13;;;;;;;0.60;0.60;;;19.80;46.00;;;;;;5055373;28;21250;-70
2021/01/05 02:10:55;;;;;;;1.47;0.80;;;19.80;46.00;;;;;;5058367;28;20485;-70
2021/01/05 02:13:35;;;;;;;0.87;0.87;;;19.80;46.00;;;;;;5031796;28;20543;-70
2021/01/05 02:16:12;;;;;;;0.60;0.60;;;19.80;46.10;;;;;;5041250;28;21126;-70
2021/01/05 02:18:40;;;;;;;0.60;0.60;;;19.80;46.10;;;;;;5045284;28;20473;-69
2021/01/05 02:21:07;;;;;;;1.13;1.00;;;19.90;46.20;;;;;;5040033;28;20840;-70
2021/01/05 02:23:42;;;;;;;0.90;0.90;;;19.90;46.00;;;;;;5034703;28;20487;-70
2021/01/05 02:26:12;;;;;;;0.70;0.70;;;19.90;46.00;;;;;;5031074;28;20465;-70
2021/01/05 02:28:40;;;;;;;0.80;0.80;;;19.90;46.00;;;;;;5035326;28;20483;-70
2021/01/05 02:31:25;;;;;;;1.47;1.37;;;19.90;46.00;;;;;;5039742;28;21069;-70
2021/01/05 02:33:58;;;;;;;0.80;0.50;;;19.80;46.00;;;;;;5053996;28;20512;-69
2021/01/05 02:36:47;;;;;;;0.70;0.70;;;19.90;45.80;;;;;;5053242;28;20482;-69
2021/01/05 02:39:23;;;;;;;0.77;0.77;;;19.90;46.10;;;;;;5059418;28;20612;-69
2021/01/05 02:42:00;;;;;;;0.70;0.60;;;19.90;46.00;;;;;;5068461;28;21451;-69
2021/01/05 02:44:31;;;;;;;0.60;0.60;;;19.80;45.90;;;;;;5056350;28;20486;-69
2021/01/05 02:47:04;;;;;;;0.80;0.80;;;19.80;45.90;;;;;;5056598;28;20485;-69
2021/01/05 02:49:38;;;;;;;0.90;0.90;;;19.80;46.00;;;;;;5052728;28;21330;-70
2021/01/05 02:52:28;;;;;;;0.70;0.70;;;19.80;46.10;;;;;;5058400;28;20489;-69
2021/01/05 02:55:04;;;;;;;0.83;0.70;;;19.80;46.00;;;;;;5042697;28;20482;-70
2021/01/05 02:57:48;;;;;;;1.87;0.60;;;19.80;46.80;;;;;;5069199;28;20481;-69
2021/01/05 03:00:56;;;;;;;0.67;0.67;;;19.80;46.10;;;;;;5058922;28;20490;-70
2021/01/05 03:03:36;;;;;;;1.10;0.97;;;19.90;46.10;;;;;;5015541;28;20490;-69
2021/01/05 03:06:35;;;;;;;0.63;0.63;;;19.90;46.10;;;;;;5037789;28;20490;-70
2021/01/05 03:09:34;;;;;;;0.70;0.70;;;19.90;46.00;;;;;;5027239;28;20486;-70
2021/01/05 03:12:16;;;;;;;0.70;0.70;;;19.90;46.10;;;;;;5030233;28;20529;-69
2021/01/05 03:14:53;;;;;;;0.80;0.80;;;19.90;46.00;;;;;;5058543;28;20493;-69
2021/01/05 03:17:21;;;;;;;0.63;0.63;;;19.90;46.00;;;;;;5048292;28;20492;-78
2021/01/05 03:19:51;;;;;;;1.07;0.70;;;19.90;46.00;;;;;;5068638;28;20572;-69
2021/01/05 03:22:17;;;;;;;1.43;0.57;;;19.90;46.10;;;;;;5049261;28;20556;-69
2021/01/05 03:24:43;;;;;;;0.60;0.60;;;19.80;45.80;;;;;;5049478;28;20488;-69
2021/01/05 03:27:10;;;;;;;0.83;0.80;;;19.90;46.10;;;;;;5040091;28;20502;-69
2021/01/05 03:29:36;;;;;;;1.00;1.00;;;19.80;45.90;;;;;;5030574;28;20474;-68
2021/01/05 03:32:05;;;;;;;0.80;0.80;;;19.80;45.80;;;;;;5054298;28;20469;-70
2021/01/05 03:34:31;;;;;;;0.67;0.67;;;19.80;46.00;;;;;;5057673;28;20469;-69
2021/01/05 03:36:57;;;;;;;1.23;0.80;;;19.80;45.80;;;;;;5053674;28;20481;-70
2021/01/05 03:39:23;;;;;;;0.70;0.70;;;19.80;46.00;;;;;;5045112;28;20493;-69
2021/01/05 03:41:50;;;;;;;0.80;0.80;;;19.80;46.00;;;;;;5042958;28;20910;-69
2021/01/05 03:44:16;;;;;;;1.33;1.23;;;19.80;46.00;;;;;;5038376;28;20486;-69
2021/01/05 03:46:42;;;;;;;0.80;0.80;;;19.80;46.00;;;;;;5065776;28;20501;-69
2021/01/05 03:49:09;;;;;;;1.10;0.70;;;19.80;46.00;;;;;;5030556;28;21100;-69
2021/01/05 03:51:35;;;;;;;0.87;0.87;;;19.80;46.10;;;;;;5054595;28;21063;-70
2021/01/05 03:54:01;;;;;;;0.80;0.80;;;19.80;46.10;;;;;;5050409;28;20478;-70
2021/01/05 03:56:28;;;;;;;0.90;0.80;;;19.80;46.00;;;;;;5068295;28;20492;-70
2021/01/05 03:58:54;;;;;;;0.60;0.60;;;19.80;46.00;;;;;;5048487;28;20490;-69
2021/01/05 04:01:20;;;;;;;0.70;0.70;;;19.80;46.00;;;;;;5030043;28;20528;-69
2021/01/05 04:03:46;;;;;;;0.70;0.70;;;19.80;45.90;;;;;;5054563;28;20496;-70
2021/01/05 04:06:13;;;;;;;0.67;0.67;;;19.80;45.80;;;;;;5068516;28;20487;-70
2021/01/05 04:08:39;;;;;;;0.63;0.63;;;19.90;45.90;;;;;;5056119;28;20505;-70
2021/01/05 04:11:06;;;;;;;0.60;0.60;;;19.90;45.80;;;;;;5054525;28;20486;-69
2021/01/05 04:13:32;;;;;;;0.70;0.70;;;19.90;45.60;;;;;;5052584;28;20492;-70
2021/01/05 04:15:58;;;;;;;0.77;0.67;;;19.80;45.20;;;;;;5056427;28;20486;-69
2021/01/05 04:18:24;;;;;;;0.60;0.60;;;19.90;45.00;;;;;;5038182;28;20517;-70
2021/01/05 04:20:51;;;;;;;0.57;0.57;;;19.90;45.00;;;;;;5050729;28;20476;-70
2021/01/05 04:23:18;;;;;;;0.70;0.70;;;20.00;45.00;;;;;;5048209;28;20472;-70
2021/01/05 04:25:44;;;;;;;0.60;0.60;;;20.00;44.80;;;;;;5056277;28;20911;-70
2021/01/05 04:28:10;;;;;;;0.50;0.50;;;20.00;44.60;;;;;;5056261;28;20486;-70
2021/01/05 04:30:38;;;;;;;0.67;0.67;;;20.10;44.60;;;;;;5055930;28;20494;-69
2021/01/05 04:33:06;;;;;;;1.23;0.60;;;20.10;44.60;;;;;;5053979;28;20488;-70
2021/01/05 04:35:33;;;;;;;0.50;0.50;;;20.10;44.50;;;;;;5044928;28;20481;-69
2021/01/05 04:37:59;;;;;;;0.50;0.50;;;20.10;44.60;;;;;;5053809;28;20496;-70
2021/01/05 04:40:31;;;;;;;0.63;0.63;;;20.10;45.10;;;;;;5052798;28;20490;-69
2021/01/05 04:43:09;;;;;;;0.50;0.50;;;20.10;45.10;;;;;;5049412;28;21080;-69
2021/01/05 04:45:38;;;;;;;0.53;0.53;;;20.10;45.10;;;;;;5047629;28;21463;-70
2021/01/05 04:48:10;;;;;;;0.70;0.70;;;20.10;45.00;;;;;;5060158;28;20477;-70
2021/01/05 04:50:37;;;;;;;1.00;0.53;;;20.10;45.10;;;;;;5053359;28;20503;-70
2021/01/05 04:53:11;;;;;;;1.23;0.90;;;20.00;44.90;;;;;;5059617;28;20483;-69
2021/01/05 04:55:52;;;;;;;0.67;0.67;;;20.00;45.10;;;;;;5052179;28;21266;-69
2021/01/05 04:58:21;;;;;;;0.50;0.50;;;19.90;45.00;;;;;;5059673;28;20853;-70
2021/01/05 05:00:47;;;;;;;0.60;0.60;;;19.90;45.10;;;;;;5043890;28;20490;-70
2021/01/05 05:03:22;;;;;;;0.50;0.50;;;19.90;45.10;;;;;;5059709;28;20481;-69
2021/01/05 05:05:56;;;;;;;0.67;0.60;;;20.00;45.30;;;;;;5054521;28;21041;-69
2021/01/05 05:08:44;;;;;;;0.80;0.80;;;19.90;45.20;;;;;;5035995;28;20479;-70
2021/01/05 05:11:13;;;;;;;0.60;0.60;;;20.00;45.50;;;;;;5045661;28;20511;-69
2021/01/05 05:13:45;;;;;;;0.40;0.40;;;20.00;45.30;;;;;;5048838;28;20521;-69
2021/01/05 05:16:26;;;;;;;0.50;0.50;;;20.00;45.30;;;;;;5036670;28;20526;-70
2021/01/05 05:19:01;;;;;;;0.77;0.77;;;20.00;45.20;;;;;;5047260;28;20481;-69
2021/01/05 05:21:33;;;;;;;0.60;0.60;;;20.00;45.20;;;;;;5040758;28;20535;-70
2021/01/05 05:24:04;;;;;;;0.50;0.50;;;20.10;45.20;;;;;;5033709;28;20485;-70
2021/01/05 05:26:35;;;;;;;0.60;0.60;;;20.00;45.20;;;;;;5037019;28;20491;-69
2021/01/05 05:29:03;;;;;;;0.57;0.57;;;20.10;45.10;;;;;;5039772;28;20489;-70
2021/01/05 05:31:31;;;;;;;0.60;0.60;;;20.10;45.10;;;;;;5045956;28;20481;-68
2021/01/05 05:33:59;;;;;;;0.60;0.60;;;20.10;44.90;;;;;;5054085;28;21202;-70
2021/01/05 05:37:01;;;;;;;1.10;0.90;;;20.00;44.60;;;;;;5031089;28;20494;-70
2021/01/05 05:39:42;;;;;;;0.60;0.60;;;20.00;44.60;;;;;;4971703;28;20488;-70
2021/01/05 05:42:15;;;;;;;0.47;0.47;;;20.00;44.50;;;;;;4971105;28;20518;-71
2021/01/05 05:44:43;;;;;;;1.13;0.77;;;20.00;44.60;;;;;;5017724;28;20485;-69
2021/01/05 05:47:14;;;;;;;0.90;0.90;;;20.00;44.80;;;;;;5061886;28;20578;-69
2021/01/05 05:49:45;;;;;;;0.50;0.50;;;20.00;45.40;;;;;;5047155;28;20485;-69
2021/01/05 05:52:28;;;;;;;0.70;0.70;;;20.00;44.60;;;;;;5043244;28;20494;-68
2021/01/05 05:54:55;;;;;;;0.70;0.70;;;20.00;44.50;;;;;;5030885;28;20498;-70
2021/01/05 05:57:39;;;;;;;0.80;0.80;;;20.00;44.60;;;;;;5043060;28;20494;-69
2021/01/05 06:00:25;;;;;;;0.40;0.40;;;19.90;44.60;;;;;;5005220;28;20532;-70
2021/01/05 06:02:52;;;;;;;0.57;0.57;;;19.90;44.60;;;;;;5011142;28;20594;-69
2021/01/05 06:05:21;;;;;;;0.57;0.57;;;20.00;44.60;;;;;;5059281;28;20500;-70
2021/01/05 06:07:47;;;;;;;0.80;0.80;;;20.00;44.60;;;;;;5023950;28;20514;-69
2021/01/05 06:10:14;;;;;;;1.60;0.70;;;20.10;44.40;;;;;;5057928;28;21059;-69
2021/01/05 06:12:41;;;;;;;0.60;0.60;;;20.10;44.30;;;;;;5041348;28;20493;-70
2021/01/05 06:15:08;;;;;;;0.60;0.60;;;20.10;44.30;;;;;;5044454;28;20494;-69
2021/01/05 06:17:34;;;;;;;1.83;0.63;;;20.10;44.00;;;;;;5039908;28;20512;-69
2021/01/05 06:20:01;;;;;;;0.70;0.70;;;20.00;44.40;;;;;;5046417;28;20474;-69
2021/01/05 06:22:27;;;;;;;0.63;0.57;;;19.90;44.50;;;;;;5048522;28;20887;-70
2021/01/05 06:24:53;;;;;;;0.70;0.70;;;19.80;44.50;;;;;;5059784;28;21551;-69
2021/01/05 06:27:19;;;;;;;0.60;0.60;;;19.80;44.70;;;;;;5062172;28;21056;-68
2021/01/05 06:29:46;;;;;;;0.63;0.63;;;19.80;44.50;;;;;;5044004;28;20493;-70
2021/01/05 06:32:12;;;;;;;0.80;0.80;;;19.70;44.40;;;;;;5036158;28;20497;-69
2021/01/05 06:34:39;;;;;;;0.77;0.77;;;19.80;43.90;;;;;;5051145;28;20882;-69
2021/01/05 06:37:05;;;;;;;0.60;0.60;;;19.70;44.10;;;;;;5044331;28;20534;-69
2021/01/05 06:39:31;;;;;;;1.20;0.90;;;19.80;43.30;;;;;;5059053;28;20491;-69
2021/01/05 06:41:57;;;;;;;0.50;0.50;;;19.80;43.60;;;;;;5032896;28;20560;-70
2021/01/05 06:44:23;;;;;;;0.50;0.50;;;19.80;44.00;;;;;;5047700;28;20500;-70
2021/01/05 06:46:51;;;;;;;0.50;0.50;;;19.80;43.70;;;;;;5053057;28;20485;-69
2021/01/05 06:49:17;;;;;;;0.70;0.70;;;19.90;45.70;;;;;;5055685;28;21100;-69
2021/01/05 06:51:44;;;;;;;0.50;0.50;;;20.00;44.70;;;;;;5039742;28;20491;-68
2021/01/05 06:54:10;;;;;;;0.50;0.50;;;20.00;44.40;;;;;;5010946;28;20479;-69
2021/01/05 06:56:47;;;;;;;1.13;0.60;;;20.00;44.60;;;;;;5033832;28;21125;-70
2021/01/05 06:59:14;;;;;;;0.60;0.60;;;19.90;44.80;;;;;;5047884;28;20493;-69
2021/01/05 07:01:40;;;;;;;0.60;0.60;;;19.90;44.50;;;;;;5051382;28;20501;-68
2021/01/05 07:04:07;;;;;;;1.33;0.70;;;20.00;44.80;;;;;;5060192;28;21455;-69
2021/01/05 07:06:33;;;;;;;1.40;0.57;;;20.00;44.60;;;;;;5053731;28;21043;-69
2021/01/05 07:08:59;;;;;;;0.60;0.60;;;19.90;44.60;;;;;;5049758;28;20474;-68
2021/01/05 07:11:25;;;;;;;0.50;0.50;;;20.00;44.50;;;;;;5035572;28;21116;-68
2021/01/05 07:13:52;;;;;;;1.37;0.70;;;20.00;44.50;;;;;;5001476;28;20486;-69
2021/01/05 07:16:18;;;;;;;0.60;0.60;;;20.00;45.20;;;;;;5045363;28;21007;-69
2021/01/05 07:18:44;;;;;;;0.70;0.70;;;20.00;44.50;;;;;;5049496;28;20502;-70
2021/01/05 07:21:11;;;;;;;2.87;2.63;;;20.00;44.50;;;;;;5043588;28;20477;-68
2021/01/05 07:23:37;;;;;;;0.60;0.60;;;20.00;45.20;;;;;;5040481;28;21675;-69
2021/01/05 07:26:03;;;;;;;0.73;0.73;;;20.00;44.40;;;;;;5040609;28;20488;-69
2021/01/05 07:28:30;;;;;;;1.30;1.07;;;20.10;44.70;;;;;;5056618;28;20884;-69
2021/01/05 07:30:56;;;;;;;0.70;0.70;;;20.00;44.70;;;;;;5038997;28;21063;-69
2021/01/05 07:33:22;;;;;;;1.53;0.70;;;20.10;44.80;;;;;;5066533;28;20500;-69
2021/01/05 07:35:48;;;;;;;0.60;0.60;;;20.10;44.90;;;;;;5043657;28;20496;-69
2021/01/05 07:38:15;;;;;;;0.50;0.50;;;20.10;44.70;;;;;;5000316;28;21099;-69
2021/01/05 07:40:41;;;;;;;0.60;0.60;;;20.10;44.70;;;;;;5041466;28;20495;-70
2021/01/05 07:43:08;;;;;;;0.60;0.60;;;20.10;44.80;;;;;;5031844;28;20537;-70
2021/01/05 07:45:34;;;;;;;0.60;0.60;;;20.10;44.90;;;;;;5003438;28;20490;-70
2021/01/05 07:48:00;;;;;;;0.97;0.70;;;20.00;44.90;;;;;;5026293;28;20479;-70
2021/01/05 07:50:26;;;;;;;0.53;0.50;;;20.00;45.00;;;;;;5031842;28;20520;-70
2021/01/05 07:52:54;;;;;;;0.80;0.80;;;20.00;45.00;;;;;;5012647;28;20520;-69
2021/01/05 07:55:22;;;;;;;0.60;0.60;;;20.00;45.00;;;;;;5047112;28;20559;-69
2021/01/05 07:57:48;;;;;;;0.60;0.60;;;20.00;45.10;;;;;;5020935;28;20475;-69
2021/01/05 08:00:16;;;;;;;0.83;0.83;;;20.10;45.10;;;;;;5027337;28;20490;-69
2021/01/05 08:02:42;;;;;;;0.50;0.50;;;20.10;45.00;;;;;;5053996;28;20477;-70
2021/01/05 08:05:10;;;;;;;0.50;0.50;;;20.20;44.90;;;;;;5056093;28;20986;-69
2021/01/05 08:07:37;;;;;;;0.70;0.70;;;20.20;44.80;;;;;;5047267;28;20496;-69
2021/01/05 08:10:04;;;;;;;0.70;0.70;;;20.30;44.80;;;;;;5053141;28;20486;-69
2021/01/05 08:12:31;;;;;;;0.70;0.70;;;20.20;44.90;;;;;;5038343;28;20484;-70
2021/01/05 08:14:57;;;;;;;0.53;0.53;;;20.10;44.90;;;;;;5033970;28;20504;-69
2021/01/05 08:17:23;;;;;;;0.60;0.60;;;20.10;45.00;;;;;;5056363;28;20492;-69
2021/01/05 08:19:49;;;;;;;0.67;0.67;;;20.10;45.10;;;;;;5047018;28;20572;-69
2021/01/05 08:22:16;;;;;;;0.57;0.57;;;20.10;45.20;;;;;;5049134;28;20489;-70
2021/01/05 08:24:42;;;;;;;0.60;0.60;;;20.00;45.20;;;;;;5034345;28;20496;-69
2021/01/05 08:27:08;;;;;;;0.60;0.60;;;20.00;45.30;;;;;;5028615;28;20495;-69
2021/01/05 08:29:35;;;;;;;0.60;0.60;;;20.00;45.40;;;;;;5030065;28;20506;-69
2021/01/05 08:32:01;;;;;;;0.70;0.70;;;20.00;45.30;;;;;;5010193;28;20495;-69
2021/01/05 08:34:28;;;;;;;0.67;0.67;;;20.00;45.30;;;;;;5030493;28;20490;-70
2021/01/05 08:36:54;;;;;;;0.70;0.70;;;20.00;45.40;;;;;;5018651;28;20483;-70
2021/01/05 08:39:20;;;;;;;1.00;1.00;;;20.00;45.60;;;;;;5058737;28;20483;-69
2021/01/05 08:41:51;;;;;;;0.93;0.50;;;20.00;45.50;;;;;;5045734;28;20962;-70
2021/01/05 08:44:17;;;;;;;0.63;0.63;;;20.00;45.60;;;;;;5054826;28;20480;-69
2021/01/05 08:46:44;;;;;;;1.07;0.60;;;20.00;45.50;;;;;;5024568;28;21129;-69
2021/01/05 08:49:10;;;;;;;0.80;0.80;;;20.10;45.50;;;;;;5012782;28;20497;-69
2021/01/05 08:51:37;;;;;;;0.73;0.73;;;20.10;45.40;;;;;;5027750;28;20755;-69
2021/01/05 08:54:03;;;;;;;0.60;0.60;;;20.10;45.50;;;;;;5037810;28;20498;-69
2021/01/05 08:56:29;;;;;;;0.60;0.57;;;20.00;45.40;;;;;;5035509;28;20480;-69
2021/01/05 08:58:55;;;;;;;0.60;0.60;;;20.00;45.40;;;;;;5036211;28;20478;-69
2021/01/05 09:01:22;;;;;;;0.93;0.93;;;20.00;46.20;;;;;;5038253;28;20499;-69
2021/01/05 09:03:49;;;;;;;0.87;0.70;;;20.00;45.50;;;;;;5056327;28;20542;-70
2021/01/05 09:06:20;;;;;;;1.00;1.00;;;20.00;45.40;;;;;;5064020;28;21013;-69
2021/01/05 09:08:46;;;;;;;0.50;0.50;;;20.00;45.40;;;;;;5011073;28;20478;-69
2021/01/05 09:11:17;;;;;;;0.70;0.70;;;20.00;45.30;;;;;;5023205;28;20849;-69
2021/01/05 09:13:43;;;;;;;0.60;0.60;;;20.10;45.40;;;;;;5045113;28;20843;-69
2021/01/05 09:16:10;;;;;;;0.70;0.70;;;20.10;45.40;;;;;;5041271;28;20489;-69
2021/01/05 09:18:36;;;;;;;0.70;0.70;;;20.10;45.20;;;;;;5046597;28;20489;-69
2021/01/05 09:21:05;;;;;;;0.60;0.50;;;20.20;45.20;;;;;;5043375;28;20489;-70
2021/01/05 09:23:31;;;;;;;0.90;0.90;;;20.20;45.10;;;;;;5051245;28;20574;-69
2021/01/05 09:25:57;;;;;;;0.60;0.60;;;20.20;45.10;;;;;;5026059;28;20552;-69
2021/01/05 09:28:26;;;;;;;1.27;0.70;;;20.20;45.20;;;;;;5019668;28;20490;-69
2021/01/05 09:30:52;;;;;;;0.50;0.50;;;20.20;45.20;;;;;;5047911;28;20485;-69
2021/01/05 09:33:19;;;;;;;0.63;0.60;;;20.30;45.20;;;;;;5034283;28;21087;-69
2021/01/05 09:35:47;;;;;;;0.60;0.60;;;20.30;45.10;;;;;;5030527;28;21073;-69
2021/01/05 09:38:14;;;;;;;0.60;0.60;;;20.30;45.00;;;;;;5059283;28;20554;-69
2021/01/05 09:40:40;;;;;;;0.60;0.60;;;20.40;45.00;;;;;;5033820;28;20521;-69
2021/01/05 09:43:08;;;;;;;0.60;0.60;;;20.40;44.80;;;;;;5035420;28;20492;-69
2021/01/05 09:45:34;;;;;;;0.97;0.97;;;20.50;44.80;;;;;;5055682;28;20497;-69
2021/01/05 09:48:05;;;;;;;0.70;0.70;;;20.50;44.90;;;;;;5048755;28;20493;-68
2021/01/05 09:50:31;;;;;;;0.60;0.60;;;20.40;45.00;;;;;;5052162;28;20482;-68
2021/01/05 09:52:57;;;;;;;2.27;0.80;;;20.30;44.90;;;;;;5037502;28;21056;-69
2021/01/05 09:55:24;;;;;;;0.70;0.70;;;20.30;45.00;;;;;;5038176;28;20512;-69
2021/01/05 09:57:50;;;;;;;0.73;0.60;;;20.30;45.10;;;;;;5055692;28;21216;-69
2021/01/05 10:00:17;;;;;;;0.50;0.50;;;20.30;45.00;;;;;;5051733;28;20514;-69
2021/01/05 10:02:44;;;;;;;0.70;0.70;;;20.30;45.10;;;;;;5037474;28;20500;-69
2021/01/05 10:05:11;;;;;;;0.67;0.67;;;20.30;45.10;;;;;;5040672;28;20491;-69
2021/01/05 10:07:37;;;;;;;1.43;0.80;;;20.30;45.10;;;;;;5033653;28;20489;-69
2021/01/05 10:10:04;;;;;;;0.90;0.90;;;20.30;45.10;;;;;;5045805;28;20485;-69
2021/01/05 10:12:31;;;;;;;0.57;0.57;;;20.30;45.10;;;;;;5041085;28;20477;-68
2021/01/05 10:14:57;;;;;;;0.50;0.50;;;20.30;45.10;;;;;;5063478;28;20465;-70
2021/01/05 10:17:23;;;;;;;0.60;0.60;;;20.30;45.10;;;;;;5029141;28;20544;-69
2021/01/05 10:19:49;;;;;;;1.30;0.80;;;20.30;45.10;;;;;;5027066;28;20543;-68
2021/01/05 10:22:16;;;;;;;0.57;0.57;;;20.40;45.00;;;;;;5033085;28;20473;-70
2021/01/05 10:24:42;;;;;;;0.70;0.70;;;20.40;45.10;;;;;;5057471;28;20508;-69
2021/01/05 10:27:08;;;;;;;0.50;0.50;;;20.30;45.00;;;;;;5040789;28;20485;-69
2021/01/05 10:29:35;;;;;;;1.17;0.70;;;20.30;45.00;;;;;;5063021;28;21495;-69
2021/01/05 10:32:01;;;;;;;1.47;0.90;;;20.30;45.10;;;;;;5047299;28;20492;-69
2021/01/05 10:34:28;;;;;;;0.50;0.50;;;20.30;45.20;;;;;;5039576;28;20481;-69
2021/01/05 10:36:54;;;;;;;0.60;0.60;;;20.30;45.10;;;;;;5043627;28;21561;-69
2021/01/05 10:39:20;;;;;;;0.70;0.70;;;20.30;45.20;;;;;;5059109;28;20549;-69
2021/01/05 10:41:47;;;;;;;0.83;0.73;;;20.30;45.10;;;;;;5012490;28;20500;-69
2021/01/05 10:44:14;;;;;;;0.80;0.80;;;20.30;45.10;;;;;;5029077;28;20574;-69
2021/01/05 10:46:41;;;;;;;0.80;0.80;;;20.30;45.10;;;;;;5022060;28;20631;-69
2021/01/05 10:49:07;;;;;;;0.83;0.83;;;20.30;45.20;;;;;;5061211;28;21208;-69
2021/01/05 10:51:33;;;;;;;0.60;0.60;;;20.20;45.00;;;;;;5031690;28;20482;-70
2021/01/05 10:54:01;;;;;;;1.00;0.80;;;20.30;45.10;;;;;;5034514;28;20500;-67
2021/01/05 10:56:27;;;;;;;0.60;0.60;;;20.20;45.20;;;;;;5037856;28;20577;-69
2021/01/05 10:58:53;;;;;;;0.50;0.50;;;20.20;45.10;;;;;;5048969;28;20469;-69
2021/01/05 11:01:20;;;;;;;2.83;1.40;;;20.30;45.30;;;;;;5048972;28;20494;-69
2021/01/05 11:03:47;;;;;;;0.63;0.63;;;20.30;45.20;;;;;;5008137;28;21035;-69
2021/01/05 11:06:13;;;;;;;0.60;0.60;;;20.30;45.10;;;;;;5038399;28;20552;-69
2021/01/05 11:08:39;;;;;;;1.13;0.67;;;20.40;45.00;;;;;;5009253;28;20479;-68
2021/01/05 11:11:06;;;;;;;0.70;0.70;;;20.40;45.00;;;;;;5042381;28;21462;-70
2021/01/05 11:13:32;;;;;;;0.77;0.77;;;20.40;45.10;;;;;;5033724;28;20485;-69
2021/01/05 11:15:58;;;;;;;0.60;0.53;;;20.30;45.10;;;;;;5040592;28;20492;-70
2021/01/05 11:18:24;;;;;;;0.50;0.50;;;20.30;45.20;;;;;;5056325;28;20549;-69
2021/01/05 11:20:51;;;;;;;0.70;0.60;;;20.30;45.30;;;;;;5054673;28;20491;-69
2021/01/05 11:23:18;;;;;;;1.17;0.60;;;20.30;45.30;;;;;;5055175;28;21016;-69
2021/01/05 11:25:44;;;;;;;0.90;0.90;;;20.30;45.30;;;;;;5034336;28;20477;-69
2021/01/05 11:28:11;;;;;;;0.80;0.80;;;20.20;45.30;;;;;;5066851;28;20487;-69
2021/01/05 11:30:37;;;;;;;0.60;0.50;;;20.30;45.30;;;;;;5057065;28;20496;-69
2021/01/05 11:33:03;;;;;;;0.50;0.50;;;20.30;45.30;;;;;;5060186;28;20478;-68
2021/01/05 11:35:29;;;;;;;0.67;0.67;;;20.30;45.40;;;;;;5048851;28;20485;-69
2021/01/05 11:37:56;;;;;;;0.60;0.60;;;20.20;45.50;;;;;;5051975;28;21710;-69
2021/01/05 11:40:23;;;;;;;0.70;0.70;;;20.30;45.60;;;;;;5062357;28;20516;-69
2021/01/05 11:42:49;;;;;;;0.60;0.60;;;20.30;45.60;;;;;;5045547;28;20477;-69
2021/01/05 11:45:19;;;;;;;0.60;0.60;;;20.30;45.60;;;;;;5065001;28;20489;-68
2021/01/05 11:47:45;;;;;;;1.90;1.00;;;20.30;45.50;;;;;;5036801;28;20477;-69
2021/01/05 11:50:13;;;;;;;0.67;0.67;;;20.30;45.50;;;;;;5037464;28;20974;-69
2021/01/05 11:52:39;;;;;;;0.90;0.90;;;20.30;45.50;;;;;;5039912;28;20579;-69
2021/01/05 11:55:07;;;;;;;1.40;0.63;;;20.30;45.50;;;;;;5041428;28;20835;-70
2021/01/05 11:57:33;;;;;;;0.47;0.47;;;20.30;45.40;;;;;;5041642;28;20900;-69
2021/01/05 12:00:00;;;;;;;0.70;0.70;;;20.30;45.40;;;;;;5051536;28;20547;-69
2021/01/05 12:02:26;;;;;;;0.70;0.70;;;20.30;45.50;;;;;;5035777;28;20481;-70
2021/01/05 12:04:52;;;;;;;0.80;0.60;;;20.20;45.40;;;;;;5065065;28;20481;-69
2021/01/05 12:07:19;;;;;;;0.77;0.77;;;20.30;45.40;;;;;;5053738;28;20474;-69
2021/01/05 12:09:45;;;;;;;0.60;0.60;;;20.20;45.40;;;;;;5051792;28;20875;-69
2021/01/05 12:12:12;;;;;;;0.70;0.70;;;20.20;45.40;;;;;;5047942;28;20508;-69
2021/01/05 12:14:40;;;;;;;0.70;0.60;;;20.20;45.50;;;;;;5061288;28;20484;-69
2021/01/05 12:17:06;;;;;;;0.60;0.60;;;20.20;45.50;;;;;;5050865;28;20489;-69
2021/01/05 12:19:33;;;;;;;0.67;0.67;;;20.20;45.50;;;;;;5052646;28;22877;-69
2021/01/05 12:22:00;;;;;;;0.60;0.60;;;20.20;45.60;;;;;;5051241;28;20835;-69
2021/01/05 12:24:27;;;;;;;0.70;0.70;;;20.20;45.60;;;;;;5053354;28;20493;-69
2021/01/05 12:26:55;;;;;;;0.60;0.60;;;20.20;45.70;;;;;;5055350;28;20515;-69
2021/01/05 12:29:24;;;;;;;0.60;0.60;;;20.20;45.60;;;;;;5055562;28;20939;-69
2021/01/05 12:31:51;;;;;;;0.57;0.57;;;20.20;45.70;;;;;;5049882;28;20477;-69
2021/01/05 12:34:18;;;;;;;0.77;0.63;;;20.20;45.80;;;;;;5054575;28;20488;-68
2021/01/05 12:36:44;;;;;;;1.03;0.83;;;20.30;45.60;;;;;;5051735;28;20478;-69
2021/01/05 12:39:16;;;;;;;1.00;1.00;;;20.30;45.60;;;;;;5054213;28;20473;-69
2021/01/05 12:41:42;;;;;;;0.53;0.53;;;20.30;45.40;;;;;;5033504;28;20477;-69
2021/01/05 12:44:09;;;;;;;0.50;0.50;;;20.30;45.30;;;;;;5059510;28;20473;-69
2021/01/05 12:46:38;;;;;;;0.53;0.53;;;20.40;45.40;;;;;;5052735;28;21584;-69
2021/01/05 12:49:04;;;;;;;0.50;0.50;;;20.40;45.30;;;;;;5038581;28;20504;-69
2021/01/05 12:51:31;;;;;;;0.77;0.77;;;20.40;45.20;;;;;;5014223;28;20486;-69
2021/01/05 12:53:58;;;;;;;0.60;0.60;;;20.40;45.40;;;;;;5033671;28;20482;-68
2021/01/05 12:56:24;;;;;;;1.07;0.60;;;20.30;45.50;;;;;;5043620;28;20481;-69